Time;durP1;ratioP1;P1;durP2;ratioP2;P2;SDS_P1;SDS_P2;PMS_P1;PMS_P2;Temp;Humidity;BMP_temperature;BMP_pressure;BME280_temperature;BME280_humidity;BME280_pressure;Samples;Min_cycle;Max_cycle;Signal;HPM_P1;HPM_P2
2021/12/28 00:01:25;;;;;;;4.75;0.90;;;;;;;;;;4965475;29;20529;-78
2021/12/28 00:03:51;;;;;;;2.40;0.93;;;;;;;;;;4965731;29;20244;-79
2021/12/28 00:06:17;;;;;;;5.78;1.40;;;;;;;;;;4966504;29;20235;-79
2021/12/28 00:08:44;;;;;;;1.35;0.68;;;;;;;;;;4945243;29;20220;-78
2021/12/28 00:11:10;;;;;;;1.23;1.05;;;;;;;;;;4965257;29;20188;-79
2021/12/28 00:13:37;;;;;;;1.98;0.77;;;;;;;;;;4965767;29;20203;-79
2021/12/28 00:18:34;;;;;;;2.15;0.80;;;;;;;;;;4965678;28;20188;-79
2021/12/28 00:21:01;;;;;;;2.55;0.90;;;;;;;;;;4964844;29;20180;-80
2021/12/28 00:23:36;;;;;;;3.83;1.48;;;;;;;;;;4964989;28;20223;-80
2021/12/28 00:26:03;;;;;;;1.55;0.93;;;;;;;;;;4945215;29;20210;-81
2021/12/28 00:28:29;;;;;;;1.92;0.98;;;;;;;;;;4965470;29;20212;-80
2021/12/28 00:30:56;;;;;;;5.03;1.30;;;;;;;;;;4949745;28;20199;-81
2021/12/28 00:33:23;;;;;;;2.80;0.88;;;;;;;;;;4966063;29;20172;-80
2021/12/28 00:35:50;;;;;;;1.70;0.80;;;;;;;;;;4945540;29;20216;-81
2021/12/28 00:38:19;;;;;;;3.53;1.00;;;;;;;;;;4944712;29;20199;-81
2021/12/28 00:40:49;;;;;;;2.85;0.70;;;;;;;;;;4964785;28;20227;-81
2021/12/28 00:43:15;;;;;;;1.58;0.70;;;;;;;;;;4965156;28;20216;-81
2021/12/28 00:45:41;;;;;;;2.45;0.65;;;;;;;;;;4964408;28;20180;-81
2021/12/28 00:48:07;;;;;;;2.55;1.10;;;;;;;;;;4948998;29;20600;-82
2021/12/28 00:50:34;;;;;;;2.15;0.90;;;;;;;;;;4944193;29;20192;-81
2021/12/28 00:53:00;;;;;;;4.95;0.98;;;;;;;;;;4964581;29;20238;-80
2021/12/28 00:55:26;;;;;;;1.55;0.88;;;;;;;;;;4965020;29;20267;-81
2021/12/28 00:57:52;;;;;;;1.75;0.70;;;;;;;;;;4947662;29;20192;-80
2021/12/28 01:00:20;;;;;;;0.95;0.60;;;;;;;;;;4965497;29;20204;-80
2021/12/28 01:02:46;;;;;;;2.25;0.60;;;;;;;;;;4964864;29;20192;-80
2021/12/28 01:05:12;;;;;;;1.58;0.60;;;;;;;;;;4964834;28;20646;-80
2021/12/28 01:07:39;;;;;;;3.33;0.77;;;;;;;;;;4964677;29;20215;-79
2021/12/28 01:10:07;;;;;;;3.50;0.73;;;;;;;;;;4964623;28;20267;-79
2021/12/28 01:12:33;;;;;;;0.60;0.50;;;;;;;;;;4965377;29;20180;-79
2021/12/28 01:14:59;;;;;;;0.57;0.57;;;;;;;;;;4965687;29;20172;-77
2021/12/28 01:17:25;;;;;;;3.67;0.70;;;;;;;;;;4943975;29;20188;-79
2021/12/28 01:19:51;;;;;;;0.82;0.50;;;;;;;;;;4963779;29;20798;-80
2021/12/28 01:22:17;;;;;;;0.77;0.60;;;;;;;;;;4964770;28;20196;-78
2021/12/28 01:24:43;;;;;;;0.50;0.40;;;;;;;;;;4947667;28;20649;-82
2021/12/28 01:27:09;;;;;;;0.60;0.47;;;;;;;;;;4965728;29;20204;-80
2021/12/28 01:29:35;;;;;;;1.80;0.50;;;;;;;;;;4964513;28;20200;-79
2021/12/28 01:32:01;;;;;;;0.80;0.52;;;;;;;;;;4964200;29;20188;-81
2021/12/28 01:34:27;;;;;;;0.95;0.50;;;;;;;;;;4964144;29;20184;-81
2021/12/28 01:36:53;;;;;;;2.17;0.50;;;;;;;;;;4946806;29;20216;-80
2021/12/28 01:39:19;;;;;;;0.50;0.50;;;;;;;;;;4965209;29;20267;-81
2021/12/28 01:41:45;;;;;;;4.72;0.50;;;;;;;;;;4964100;28;20189;-80
2021/12/28 01:44:12;;;;;;;0.70;0.47;;;;;;;;;;4964953;28;20236;-79
2021/12/28 01:46:38;;;;;;;0.95;0.57;;;;;;;;;;4963388;29;20263;-80
2021/12/28 01:49:05;;;;;;;0.60;0.50;;;;;;;;;;4963953;28;20706;-80
2021/12/28 01:51:32;;;;;;;0.80;0.52;;;;;;;;;;4964359;28;20181;-79
2021/12/28 01:53:59;;;;;;;1.08;0.60;;;;;;;;;;4964219;29;20165;-81
2021/12/28 01:56:28;;;;;;;1.08;0.52;;;;;;;;;;4964227;28;20184;-79
2021/12/28 01:58:54;;;;;;;0.85;0.55;;;;;;;;;;4964067;29;20212;-80
2021/12/28 02:01:20;;;;;;;0.50;0.40;;;;;;;;;;4963668;29;20244;-80
2021/12/28 02:03:47;;;;;;;0.50;0.50;;;;;;;;;;4946618;28;20211;-78
2021/12/28 02:06:13;;;;;;;0.55;0.50;;;;;;;;;;4965535;29;20355;-81
2021/12/28 02:08:39;;;;;;;0.75;0.60;;;;;;;;;;4964713;28;20195;-79
2021/12/28 02:11:06;;;;;;;1.85;0.55;;;;;;;;;;4966938;29;20208;-79
2021/12/28 02:13:32;;;;;;;0.95;0.88;;;;;;;;;;4967681;28;20216;-80
2021/12/28 02:16:01;;;;;;;1.00;0.63;;;;;;;;;;4966635;28;20192;-80
2021/12/28 02:18:29;;;;;;;1.17;0.95;;;;;;;;;;4967850;29;20184;-82
2021/12/28 02:20:57;;;;;;;3.28;1.10;;;;;;;;;;4967447;29;20172;-78
2021/12/28 02:23:23;;;;;;;2.85;0.60;;;;;;;;;;4967529;28;20630;-80
2021/12/28 02:25:49;;;;;;;1.10;0.60;;;;;;;;;;4967526;29;20383;-80
2021/12/28 02:28:16;;;;;;;1.45;0.70;;;;;;;;;;4967742;29;20555;-79
2021/12/28 02:30:44;;;;;;;0.60;0.60;;;;;;;;;;4966376;28;20176;-79
2021/12/28 02:33:10;;;;;;;3.25;0.60;;;;;;;;;;4967804;29;20177;-80
2021/12/28 02:35:37;;;;;;;4.30;0.77;;;;;;;;;;4966125;28;20192;-80
2021/12/28 02:38:04;;;;;;;0.80;0.65;;;;;;;;;;4967097;28;20200;-81
2021/12/28 02:40:31;;;;;;;3.25;0.77;;;;;;;;;;4966773;28;20271;-80
2021/12/28 02:42:58;;;;;;;2.85;1.02;;;;;;;;;;4967242;28;20189;-80
2021/12/28 02:45:32;;;;;;;0.80;0.60;;;;;;;;;;4950702;29;20177;-81
2021/12/28 02:47:58;;;;;;;1.65;0.80;;;;;;;;;;4966342;29;20184;-81
2021/12/28 02:50:26;;;;;;;1.85;1.15;;;;;;;;;;4946804;29;20618;-79
2021/12/28 02:52:52;;;;;;;0.90;0.60;;;;;;;;;;4967052;28;20180;-81
2021/12/28 02:55:20;;;;;;;1.10;0.70;;;;;;;;;;4947109;29;20279;-80
2021/12/28 02:57:47;;;;;;;2.13;0.70;;;;;;;;;;4949671;28;20187;-80
2021/12/28 03:00:13;;;;;;;3.08;0.80;;;;;;;;;;4968201;29;20259;-80
2021/12/28 03:02:39;;;;;;;3.45;0.80;;;;;;;;;;4945653;29;20198;-80
2021/12/28 03:05:05;;;;;;;1.15;0.70;;;;;;;;;;4946718;29;20213;-80
2021/12/28 03:07:31;;;;;;;1.13;0.88;;;;;;;;;;4966763;29;20200;-80
2021/12/28 03:09:58;;;;;;;2.67;0.80;;;;;;;;;;4966732;28;20588;-80
2021/12/28 03:12:24;;;;;;;1.05;0.95;;;;;;;;;;4967678;29;20252;-81
2021/12/28 03:14:50;;;;;;;0.93;0.63;;;;;;;;;;4966521;29;20196;-80
2021/12/28 03:17:16;;;;;;;1.45;0.60;;;;;;;;;;4965179;28;20192;-80
2021/12/28 03:19:42;;;;;;;1.40;1.00;;;;;;;;;;4966096;28;20239;-81
2021/12/28 03:22:08;;;;;;;6.75;1.10;;;;;;;;;;4965729;28;20215;-80
2021/12/28 03:24:34;;;;;;;1.50;0.50;;;;;;;;;;4966480;28;20169;-80
2021/12/28 03:27:00;;;;;;;1.47;0.60;;;;;;;;;;4950131;29;20172;-80
2021/12/28 03:29:26;;;;;;;2.65;0.70;;;;;;;;;;4966229;29;20467;-79
2021/12/28 03:31:52;;;;;;;2.63;0.70;;;;;;;;;;4945120;29;20199;-80
2021/12/28 03:34:18;;;;;;;3.47;0.60;;;;;;;;;;4966849;29;20507;-80
2021/12/28 03:36:44;;;;;;;1.13;0.70;;;;;;;;;;4966380;28;20191;-80
2021/12/28 03:39:11;;;;;;;1.45;0.60;;;;;;;;;;4967028;29;20196;-80
2021/12/28 03:41:37;;;;;;;2.22;1.00;;;;;;;;;;4945503;29;20203;-79
2021/12/28 03:44:04;;;;;;;0.70;0.60;;;;;;;;;;4966020;29;20196;-81
2021/12/28 03:46:31;;;;;;;0.93;0.65;;;;;;;;;;4964501;28;20227;-80
2021/12/28 03:48:57;;;;;;;1.35;0.70;;;;;;;;;;4966076;28;20216;-80
2021/12/28 03:51:23;;;;;;;1.15;0.73;;;;;;;;;;4966210;29;20184;-80
2021/12/28 03:53:50;;;;;;;1.38;0.80;;;;;;;;;;4964436;29;20200;-80
2021/12/28 03:56:17;;;;;;;5.32;0.80;;;;;;;;;;4945904;29;20243;-80
2021/12/28 03:58:43;;;;;;;3.90;0.95;;;;;;;;;;4964134;28;20192;-80
2021/12/28 04:01:11;;;;;;;2.10;0.90;;;;;;;;;;4951084;28;20188;-80
2021/12/28 04:03:37;;;;;;;3.58;1.20;;;;;;;;;;4966077;28;20682;-81
2021/12/28 04:06:08;;;;;;;1.23;0.60;;;;;;;;;;4948950;29;20231;-80
2021/12/28 04:08:34;;;;;;;1.85;0.73;;;;;;;;;;4945998;29;20188;-79
2021/12/28 04:11:25;;;;;;;2.28;0.93;;;;;;;;;;4965128;29;20184;-81
2021/12/28 04:13:52;;;;;;;2.90;1.25;;;;;;;;;;4945006;29;20184;-79
2021/12/28 04:16:18;;;;;;;2.42;0.90;;;;;;;;;;4964694;28;20224;-81
2021/12/28 04:18:45;;;;;;;4.05;0.85;;;;;;;;;;4947793;29;20195;-81
2021/12/28 04:21:11;;;;;;;2.30;1.00;;;;;;;;;;4948791;29;20184;-80
2021/12/28 04:23:37;;;;;;;4.38;1.23;;;;;;;;;;4945689;29;20199;-78
2021/12/28 04:26:04;;;;;;;5.60;0.90;;;;;;;;;;4965240;28;20506;-78
2021/12/28 04:28:30;;;;;;;1.40;1.10;;;;;;;;;;4944750;29;20283;-78
2021/12/28 04:30:57;;;;;;;2.22;0.93;;;;;;;;;;4964960;28;20203;-81
2021/12/28 04:33:23;;;;;;;8.25;1.50;;;;;;;;;;4966310;29;20172;-79
2021/12/28 04:35:49;;;;;;;3.45;1.00;;;;;;;;;;4965089;28;20252;-82
2021/12/28 04:38:15;;;;;;;2.90;1.25;;;;;;;;;;4965175;28;20188;-81
2021/12/28 04:40:41;;;;;;;3.28;1.23;;;;;;;;;;4945399;29;20216;-79
2021/12/28 04:43:08;;;;;;;2.00;0.85;;;;;;;;;;4964474;29;20181;-81
2021/12/28 04:45:36;;;;;;;3.17;1.05;;;;;;;;;;4965520;29;20176;-79
2021/12/28 04:48:03;;;;;;;3.50;1.13;;;;;;;;;;4948560;29;20651;-80
2021/12/28 04:50:29;;;;;;;4.32;1.48;;;;;;;;;;4944853;29;20188;-80
2021/12/28 04:52:57;;;;;;;4.70;1.48;;;;;;;;;;4944831;29;20191;-79
2021/12/28 04:55:24;;;;;;;3.80;1.13;;;;;;;;;;4965199;28;20681;-80
2021/12/28 04:57:50;;;;;;;11.23;1.70;;;;;;;;;;4964737;28;20203;-79
2021/12/28 05:00:17;;;;;;;3.75;1.10;;;;;;;;;;4948449;29;20271;-80
2021/12/28 05:02:43;;;;;;;4.53;1.23;;;;;;;;;;4964520;29;20677;-80
2021/12/28 05:05:10;;;;;;;4.82;1.77;;;;;;;;;;4944645;29;20672;-79
2021/12/28 05:07:36;;;;;;;5.07;0.98;;;;;;;;;;4964836;28;20192;-81
2021/12/28 05:10:03;;;;;;;2.65;1.92;;;;;;;;;;4964765;28;20199;-80
2021/12/28 05:12:29;;;;;;;5.50;1.50;;;;;;;;;;4947177;29;20713;-79
2021/12/28 05:14:58;;;;;;;2.80;1.20;;;;;;;;;;4948203;29;20199;-79
2021/12/28 05:17:25;;;;;;;6.43;1.90;;;;;;;;;;4944396;29;20244;-78
2021/12/28 05:19:51;;;;;;;5.68;1.65;;;;;;;;;;4944565;29;20208;-80
2021/12/28 05:22:17;;;;;;;6.72;1.20;;;;;;;;;;4964566;28;20216;-79
2021/12/28 05:24:44;;;;;;;3.50;1.00;;;;;;;;;;4964380;29;20176;-79
2021/12/28 05:27:10;;;;;;;1.75;0.90;;;;;;;;;;4964988;29;20196;-80
2021/12/28 05:29:36;;;;;;;5.93;1.35;;;;;;;;;;4964866;28;20193;-79
2021/12/28 05:32:02;;;;;;;5.63;1.70;;;;;;;;;;4964091;28;20188;-80
2021/12/28 05:34:28;;;;;;;6.00;1.50;;;;;;;;;;4944828;29;20219;-81
2021/12/28 05:36:54;;;;;;;4.13;1.20;;;;;;;;;;4964676;29;20196;-79
2021/12/28 05:39:20;;;;;;;1.83;1.00;;;;;;;;;;4948002;29;20506;-79
2021/12/28 05:41:46;;;;;;;2.58;1.58;;;;;;;;;;4963531;29;20984;-76
2021/12/28 05:44:12;;;;;;;5.82;1.90;;;;;;;;;;4966246;28;20188;-77
2021/12/28 05:46:38;;;;;;;3.90;1.45;;;;;;;;;;4967304;28;20192;-78
2021/12/28 05:49:04;;;;;;;6.03;2.58;;;;;;;;;;4968057;29;20188;-78
2021/12/28 05:51:30;;;;;;;4.35;1.35;;;;;;;;;;4968366;28;20188;-77
2021/12/28 05:53:56;;;;;;;6.45;1.63;;;;;;;;;;4951073;29;20177;-77
2021/12/28 05:56:22;;;;;;;7.60;1.83;;;;;;;;;;4967534;29;20196;-77
2021/12/28 05:58:48;;;;;;;3.05;1.20;;;;;;;;;;4965934;28;20515;-77
2021/12/28 06:01:14;;;;;;;8.07;1.35;;;;;;;;;;4954624;29;20223;-78
2021/12/28 06:03:40;;;;;;;4.93;1.40;;;;;;;;;;4950620;29;20177;-78
2021/12/28 06:06:06;;;;;;;4.85;1.48;;;;;;;;;;4968515;29;20479;-77
2021/12/28 06:08:32;;;;;;;3.80;1.70;;;;;;;;;;4967976;29;20576;-76
2021/12/28 06:11:03;;;;;;;10.50;2.05;;;;;;;;;;4967288;28;20448;-76
2021/12/28 06:13:29;;;;;;;4.50;1.63;;;;;;;;;;4947532;29;20184;-77
2021/12/28 06:15:55;;;;;;;11.20;2.22;;;;;;;;;;4951567;29;20206;-78
2021/12/28 06:18:22;;;;;;;6.93;1.58;;;;;;;;;;4951785;29;20172;-78
2021/12/28 06:20:48;;;;;;;5.82;1.27;;;;;;;;;;4947558;29;20216;-78
2021/12/28 06:23:14;;;;;;;9.05;1.95;;;;;;;;;;4967257;29;20181;-77
2021/12/28 06:25:40;;;;;;;6.70;2.05;;;;;;;;;;4966977;28;20191;-75
2021/12/28 06:28:06;;;;;;;8.02;1.73;;;;;;;;;;4947628;29;20208;-77
2021/12/28 06:30:33;;;;;;;5.18;1.63;;;;;;;;;;4950460;28;20192;-77
2021/12/28 06:32:59;;;;;;;6.72;2.97;;;;;;;;;;4966609;29;20180;-78
2021/12/28 06:35:25;;;;;;;4.88;1.38;;;;;;;;;;4967188;28;20192;-80
2021/12/28 06:37:51;;;;;;;7.15;2.03;;;;;;;;;;4967375;29;20716;-76
2021/12/28 06:40:17;;;;;;;4.75;1.67;;;;;;;;;;4966720;29;20212;-77
2021/12/28 06:42:43;;;;;;;6.13;2.17;;;;;;;;;;4966970;29;20184;-77
2021/12/28 06:45:10;;;;;;;5.07;1.35;;;;;;;;;;4968692;29;20408;-77
2021/12/28 06:47:36;;;;;;;6.15;1.95;;;;;;;;;;4966413;28;20215;-77
2021/12/28 06:50:03;;;;;;;10.95;2.28;;;;;;;;;;4967160;29;20247;-76
2021/12/28 06:52:29;;;;;;;7.70;2.83;;;;;;;;;;4967340;28;20192;-76
2021/12/28 06:54:55;;;;;;;10.10;2.67;;;;;;;;;;4966670;28;20208;-76
2021/12/28 06:57:22;;;;;;;13.20;2.15;;;;;;;;;;4961589;29;20184;-77
2021/12/28 06:59:48;;;;;;;7.85;2.47;;;;;;;;;;4966354;29;20614;-77
2021/12/28 07:02:15;;;;;;;9.00;2.00;;;;;;;;;;4946393;29;20208;-77
2021/12/28 07:04:41;;;;;;;6.15;2.20;;;;;;;;;;4966892;28;20195;-78
2021/12/28 07:07:08;;;;;;;7.63;2.20;;;;;;;;;;4966557;29;20220;-76
2021/12/28 07:09:34;;;;;;;10.57;2.15;;;;;;;;;;4966670;29;20179;-77
2021/12/28 07:12:00;;;;;;;9.13;1.88;;;;;;;;;;4967422;29;20187;-76
2021/12/28 07:14:28;;;;;;;7.38;2.53;;;;;;;;;;4966496;29;20184;-76
2021/12/28 07:16:54;;;;;;;10.80;2.40;;;;;;;;;;4945970;29;20216;-77
2021/12/28 07:19:20;;;;;;;8.13;1.67;;;;;;;;;;4946888;29;20218;-76
2021/12/28 07:21:46;;;;;;;2.70;1.70;;;;;;;;;;4966552;29;20173;-76
2021/12/28 07:24:13;;;;;;;6.93;1.65;;;;;;;;;;4966759;29;20954;-76
2021/12/28 07:26:40;;;;;;;5.15;2.13;;;;;;;;;;4966880;29;20176;-78
2021/12/28 07:29:06;;;;;;;7.03;2.17;;;;;;;;;;4966382;28;20195;-77
2021/12/28 07:31:33;;;;;;;4.50;1.83;;;;;;;;;;4966128;28;20202;-77
2021/12/28 07:33:59;;;;;;;12.77;2.08;;;;;;;;;;4966393;29;20181;-76
2021/12/28 07:36:25;;;;;;;6.22;1.55;;;;;;;;;;4967256;29;20172;-79
2021/12/28 07:38:51;;;;;;;13.40;2.63;;;;;;;;;;4965503;29;20192;-77
2021/12/28 07:41:16;;;;;;;5.30;1.73;;;;;;;;;;4966450;28;20195;-76
2021/12/28 07:43:43;;;;;;;15.13;1.97;;;;;;;;;;4965721;28;20439;-77
2021/12/28 07:46:09;;;;;;;10.15;2.78;;;;;;;;;;4945372;29;20444;-76
2021/12/28 07:48:35;;;;;;;6.00;1.85;;;;;;;;;;4966206;28;20207;-76
2021/12/28 07:51:01;;;;;;;12.45;1.98;;;;;;;;;;4948903;29;20202;-76
2021/12/28 07:53:27;;;;;;;8.48;1.73;;;;;;;;;;4965578;28;20184;-75
2021/12/28 07:55:54;;;;;;;3.30;1.50;;;;;;;;;;4965843;28;20200;-77
2021/12/28 07:58:20;;;;;;;10.35;2.33;;;;;;;;;;4946446;29;20184;-76
2021/12/28 08:00:46;;;;;;;13.60;1.90;;;;;;;;;;4948000;29;20287;-77
2021/12/28 08:03:12;;;;;;;4.50;1.40;;;;;;;;;;4966068;29;20428;-76
2021/12/28 08:05:38;;;;;;;3.97;1.63;;;;;;;;;;4945584;29;20464;-76
2021/12/28 08:08:04;;;;;;;5.50;1.85;;;;;;;;;;4945112;29;20643;-76
2021/12/28 08:10:31;;;;;;;7.40;2.38;;;;;;;;;;4945646;29;20203;-77
2021/12/28 08:12:57;;;;;;;4.55;1.65;;;;;;;;;;4950089;28;20189;-80
2021/12/28 08:15:25;;;;;;;3.45;1.17;;;;;;;;;;4966410;29;20607;-77
2021/12/28 08:17:52;;;;;;;10.63;1.50;;;;;;;;;;4945195;29;20203;-80
2021/12/28 08:20:18;;;;;;;5.22;1.10;;;;;;;;;;4964898;28;20215;-77
2021/12/28 08:22:45;;;;;;;8.13;2.25;;;;;;;;;;4945393;29;20651;-75
2021/12/28 08:25:12;;;;;;;8.13;1.63;;;;;;;;;;4965237;29;20243;-76
2021/12/28 08:27:39;;;;;;;6.88;1.52;;;;;;;;;;4965654;28;20168;-81
2021/12/28 08:30:06;;;;;;;4.68;1.13;;;;;;;;;;4966008;29;20180;-79
2021/12/28 08:32:32;;;;;;;4.15;1.45;;;;;;;;;;4964870;28;20200;-77
2021/12/28 08:34:58;;;;;;;3.25;0.95;;;;;;;;;;4964906;28;20195;-79
2021/12/28 08:37:24;;;;;;;3.92;1.20;;;;;;;;;;4945410;29;20251;-76
2021/12/28 08:39:50;;;;;;;4.07;1.33;;;;;;;;;;4947418;29;20211;-79
2021/12/28 08:42:16;;;;;;;3.80;1.30;;;;;;;;;;4966472;29;20224;-77
2021/12/28 08:44:43;;;;;;;6.80;2.40;;;;;;;;;;4964745;29;20195;-77
2021/12/28 08:47:09;;;;;;;7.45;2.00;;;;;;;;;;4964095;28;20185;-76
2021/12/28 08:49:35;;;;;;;5.40;1.40;;;;;;;;;;4964573;28;20231;-77
2021/12/28 08:52:01;;;;;;;4.22;1.80;;;;;;;;;;4947120;29;20212;-76
2021/12/28 08:54:27;;;;;;;2.90;1.45;;;;;;;;;;4965852;29;20184;-78
2021/12/28 08:56:53;;;;;;;3.10;1.13;;;;;;;;;;4945442;29;20180;-77
2021/12/28 08:59:19;;;;;;;7.65;1.42;;;;;;;;;;4964692;28;20204;-77
2021/12/28 09:01:45;;;;;;;4.63;1.40;;;;;;;;;;4965197;28;20195;-77
2021/12/28 09:04:11;;;;;;;6.88;1.80;;;;;;;;;;4944455;29;20201;-77
2021/12/28 09:06:37;;;;;;;2.05;1.13;;;;;;;;;;4965135;28;20248;-79
2021/12/28 09:09:04;;;;;;;2.63;1.38;;;;;;;;;;4966038;29;20176;-80
2021/12/28 09:11:30;;;;;;;4.47;1.70;;;;;;;;;;4944718;29;20198;-76
2021/12/28 09:13:56;;;;;;;4.65;1.85;;;;;;;;;;4944603;29;20189;-78
2021/12/28 09:16:23;;;;;;;3.03;1.13;;;;;;;;;;4964054;28;20188;-79
2021/12/28 09:18:49;;;;;;;6.07;1.67;;;;;;;;;;4965382;28;20198;-79
2021/12/28 09:21:15;;;;;;;4.40;1.60;;;;;;;;;;4969448;29;20184;-77
2021/12/28 09:23:42;;;;;;;7.30;1.42;;;;;;;;;;4968833;29;20191;-77
2021/12/28 09:26:08;;;;;;;4.15;1.30;;;;;;;;;;4968679;28;20204;-77
2021/12/28 09:28:34;;;;;;;5.53;2.35;;;;;;;;;;4948651;29;20662;-77
2021/12/28 09:31:00;;;;;;;4.75;1.48;;;;;;;;;;4968249;29;20199;-79
2021/12/28 09:33:26;;;;;;;7.72;1.75;;;;;;;;;;4968990;29;20207;-78
2021/12/28 09:35:53;;;;;;;7.35;2.28;;;;;;;;;;4968567;29;20219;-79
2021/12/28 09:38:19;;;;;;;3.35;2.55;;;;;;;;;;4968362;28;20184;-79
2021/12/28 09:40:46;;;;;;;11.13;1.95;;;;;;;;;;4968201;28;20262;-80
2021/12/28 09:43:13;;;;;;;6.05;2.67;;;;;;;;;;4968444;29;20666;-79
2021/12/28 09:45:39;;;;;;;8.13;2.20;;;;;;;;;;4967730;29;20636;-77
2021/12/28 09:48:05;;;;;;;9.50;2.33;;;;;;;;;;4968445;29;20446;-81
2021/12/28 09:50:32;;;;;;;8.85;2.38;;;;;;;;;;4967917;29;20189;-78
2021/12/28 09:53:00;;;;;;;8.05;2.30;;;;;;;;;;4968306;28;20185;-78
2021/12/28 09:55:26;;;;;;;12.35;3.08;;;;;;;;;;4968079;28;20176;-82
2021/12/28 09:57:52;;;;;;;12.02;2.88;;;;;;;;;;4950861;29;20188;-78
2021/12/28 10:00:19;;;;;;;16.48;3.08;;;;;;;;;;4968917;29;20227;-79
2021/12/28 10:02:45;;;;;;;13.88;3.15;;;;;;;;;;4947559;29;20243;-78
2021/12/28 10:05:13;;;;;;;8.25;2.78;;;;;;;;;;4967459;28;20188;-81
2021/12/28 10:07:43;;;;;;;16.85;4.15;;;;;;;;;;4968064;28;20242;-81
2021/12/28 10:10:10;;;;;;;11.50;3.42;;;;;;;;;;4968312;28;20665;-79
2021/12/28 10:12:38;;;;;;;12.60;2.50;;;;;;;;;;4968098;29;20181;-79
2021/12/28 10:15:08;;;;;;;12.45;4.10;;;;;;;;;;4968291;29;20549;-78
2021/12/28 10:17:34;;;;;;;46.95;5.05;;;;;;;;;;4946720;29;20230;-78
2021/12/28 10:20:01;;;;;;;13.25;3.40;;;;;;;;;;4967777;28;20308;-78
2021/12/28 10:22:35;;;;;;;14.65;3.47;;;;;;;;;;4967700;29;20177;-77
2021/12/28 10:25:11;;;;;;;15.90;4.25;;;;;;;;;;4952801;28;20191;-78
2021/12/28 10:27:39;;;;;;;8.63;2.80;;;;;;;;;;4967955;28;20172;-77
2021/12/28 10:30:13;;;;;;;13.88;3.20;;;;;;;;;;4950517;29;20235;-79
2021/12/28 10:32:41;;;;;;;16.52;3.28;;;;;;;;;;4966988;28;20196;-80
2021/12/28 10:35:11;;;;;;;17.35;3.45;;;;;;;;;;4966784;28;20271;-79
2021/12/28 10:37:39;;;;;;;14.73;3.20;;;;;;;;;;4947582;29;20203;-78
2021/12/28 10:40:08;;;;;;;10.30;3.10;;;;;;;;;;4967183;29;20267;-77
2021/12/28 10:42:38;;;;;;;19.98;5.28;;;;;;;;;;4967859;28;20216;-79
2021/12/28 10:45:05;;;;;;;15.65;3.38;;;;;;;;;;4967415;29;20172;-79
2021/12/28 10:47:31;;;;;;;14.23;4.43;;;;;;;;;;4966121;29;20188;-79
2021/12/28 10:50:00;;;;;;;15.07;4.65;;;;;;;;;;4967111;29;20204;-76
2021/12/28 10:52:37;;;;;;;13.82;4.55;;;;;;;;;;4966942;29;20189;-79
2021/12/28 10:55:21;;;;;;;15.48;4.05;;;;;;;;;;4934740;29;20553;-79
2021/12/28 10:57:47;;;;;;;13.23;4.03;;;;;;;;;;4967286;28;20208;-76
2021/12/28 11:00:26;;;;;;;17.63;4.07;;;;;;;;;;4949951;29;20272;-81
2021/12/28 11:03:10;;;;;;;15.07;3.80;;;;;;;;;;4967207;29;20252;-78
2021/12/28 11:05:36;;;;;;;16.75;3.80;;;;;;;;;;4966530;28;20689;-79
2021/12/28 11:08:02;;;;;;;15.13;3.40;;;;;;;;;;4966645;28;20192;-78
2021/12/28 11:10:29;;;;;;;15.60;3.35;;;;;;;;;;4966596;28;20436;-77
2021/12/28 11:12:55;;;;;;;17.92;4.43;;;;;;;;;;4967398;29;20205;-77
2021/12/28 11:15:22;;;;;;;15.40;4.30;;;;;;;;;;4967132;29;20176;-77
2021/12/28 11:17:49;;;;;;;11.98;3.25;;;;;;;;;;4945722;29;20188;-78
2021/12/28 11:20:15;;;;;;;16.00;3.03;;;;;;;;;;4966815;29;20208;-77
2021/12/28 11:22:41;;;;;;;13.48;3.50;;;;;;;;;;4946430;29;20188;-79
2021/12/28 11:25:20;;;;;;;12.68;3.92;;;;;;;;;;4966328;29;20192;-80
2021/12/28 11:27:46;;;;;;;9.73;3.13;;;;;;;;;;4966467;28;20933;-78
2021/12/28 11:30:13;;;;;;;17.40;3.50;;;;;;;;;;4949693;29;20181;-79
2021/12/28 11:32:39;;;;;;;15.10;3.70;;;;;;;;;;4966362;29;20229;-78
2021/12/28 11:35:06;;;;;;;11.73;3.10;;;;;;;;;;4966058;28;20177;-78
2021/12/28 11:37:34;;;;;;;15.55;4.20;;;;;;;;;;4966542;28;20188;-79
2021/12/28 11:40:01;;;;;;;13.23;3.75;;;;;;;;;;4948310;29;20212;-77
2021/12/28 11:42:28;;;;;;;13.95;4.05;;;;;;;;;;4966299;28;20180;-76
2021/12/28 11:44:54;;;;;;;12.05;3.65;;;;;;;;;;4965781;29;20196;-78
2021/12/28 11:47:21;;;;;;;17.05;2.97;;;;;;;;;;4965294;28;20191;-79
2021/12/28 11:49:48;;;;;;;12.73;4.32;;;;;;;;;;4946088;29;20202;-77
2021/12/28 11:52:16;;;;;;;8.43;3.03;;;;;;;;;;4966288;28;20181;-79
2021/12/28 11:54:45;;;;;;;16.55;3.92;;;;;;;;;;4951319;29;20268;-78
2021/12/28 11:57:12;;;;;;;15.65;3.70;;;;;;;;;;4949374;29;20180;-77
2021/12/28 11:59:40;;;;;;;12.00;4.25;;;;;;;;;;4965411;28;20212;-77
2021/12/28 12:02:06;;;;;;;13.02;3.05;;;;;;;;;;4965606;28;20185;-81
2021/12/28 12:04:32;;;;;;;10.65;3.40;;;;;;;;;;4965469;28;20655;-79
2021/12/28 12:07:12;;;;;;;13.82;4.03;;;;;;;;;;4966015;29;20213;-79
2021/12/28 12:09:51;;;;;;;11.70;3.05;;;;;;;;;;4946267;29;20386;-78
2021/12/28 12:12:21;;;;;;;10.75;3.50;;;;;;;;;;4965474;29;20196;-80
2021/12/28 12:14:47;;;;;;;8.23;3.35;;;;;;;;;;4965689;28;20215;-80
2021/12/28 12:17:39;;;;;;;12.87;4.67;;;;;;;;;;4964022;28;20193;-78
2021/12/28 12:20:22;;;;;;;18.50;3.90;;;;;;;;;;4959142;29;20476;-78
2021/12/28 12:22:55;;;;;;;12.45;3.85;;;;;;;;;;4966406;29;20180;-79
2021/12/28 12:25:48;;;;;;;21.58;4.80;;;;;;;;;;4965577;28;20431;-80
2021/12/28 12:28:15;;;;;;;15.13;4.32;;;;;;;;;;4944574;28;20647;-79
2021/12/28 12:30:49;;;;;;;17.98;3.65;;;;;;;;;;4965474;28;20188;-78
2021/12/28 12:33:16;;;;;;;13.80;3.50;;;;;;;;;;4965198;29;20186;-83
2021/12/28 12:35:48;;;;;;;18.00;4.95;;;;;;;;;;4944961;29;20220;-79
2021/12/28 12:38:14;;;;;;;14.55;4.18;;;;;;;;;;4965562;28;20200;-78
2021/12/28 12:40:59;;;;;;;17.45;4.18;;;;;;;;;;4964964;28;20423;-79
2021/12/28 12:43:46;;;;;;;13.55;3.20;;;;;;;;;;4945014;29;20204;-79
2021/12/28 12:46:21;;;;;;;9.65;3.88;;;;;;;;;;4950731;28;20211;-80
2021/12/28 12:48:47;;;;;;;18.52;4.07;;;;;;;;;;4965391;29;20181;-78
2021/12/28 12:51:22;;;;;;;16.20;3.30;;;;;;;;;;4965953;29;20173;-79
2021/12/28 12:53:50;;;;;;;17.85;6.28;;;;;;;;;;4964938;28;20432;-81
2021/12/28 12:56:22;;;;;;;14.15;4.32;;;;;;;;;;4964833;28;20269;-78
2021/12/28 12:58:49;;;;;;;10.50;3.40;;;;;;;;;;4965274;28;20193;-80
2021/12/28 13:01:27;;;;;;;16.83;4.80;;;;;;;;;;4964482;29;20184;-78
2021/12/28 13:03:57;;;;;;;14.10;3.95;;;;;;;;;;4964883;29;20173;-79
2021/12/28 13:06:42;;;;;;;12.48;3.58;;;;;;;;;;4948398;29;20342;-76
2021/12/28 13:09:08;;;;;;;11.45;3.47;;;;;;;;;;4965796;29;20220;-77
2021/12/28 13:11:34;;;;;;;10.75;2.78;;;;;;;;;;4956998;28;20196;-79
2021/12/28 13:14:00;;;;;;;11.85;2.90;;;;;;;;;;4957844;29;20185;-81
2021/12/28 13:16:26;;;;;;;12.35;4.22;;;;;;;;;;4963620;28;20185;-79
2021/12/28 13:19:06;;;;;;;13.43;4.03;;;;;;;;;;4964731;29;20186;-80
2021/12/28 13:21:31;;;;;;;12.45;3.70;;;;;;;;;;4961752;28;20176;-79
2021/12/28 13:24:11;;;;;;;23.33;5.20;;;;;;;;;;4965227;29;20188;-78
2021/12/28 13:26:44;;;;;;;11.55;3.47;;;;;;;;;;4943914;29;20460;-77
2021/12/28 13:29:10;;;;;;;15.35;4.35;;;;;;;;;;4944660;29;20185;-78
2021/12/28 13:31:36;;;;;;;12.63;3.97;;;;;;;;;;4964638;29;20250;-79
2021/12/28 13:34:02;;;;;;;13.90;3.90;;;;;;;;;;4964362;28;20220;-80
2021/12/28 13:36:29;;;;;;;17.83;3.92;;;;;;;;;;4947731;28;20181;-79
2021/12/28 13:39:08;;;;;;;8.60;2.85;;;;;;;;;;4964897;29;20195;-80
2021/12/28 13:41:34;;;;;;;8.13;3.30;;;;;;;;;;4944712;29;20192;-79
2021/12/28 13:44:04;;;;;;;14.10;3.50;;;;;;;;;;4964632;29;20192;-80
2021/12/28 13:46:31;;;;;;;11.82;2.08;;;;;;;;;;4963506;29;20271;-81
2021/12/28 13:48:59;;;;;;;12.73;2.90;;;;;;;;;;4949190;29;20185;-80
2021/12/28 13:51:26;;;;;;;6.55;1.85;;;;;;;;;;4965461;29;20204;-80
2021/12/28 13:53:57;;;;;;;12.38;2.60;;;;;;;;;;4964155;29;20180;-78
2021/12/28 13:56:33;;;;;;;11.73;2.30;;;;;;;;;;4964225;28;20180;-81
2021/12/28 13:58:59;;;;;;;7.38;2.42;;;;;;;;;;4964431;28;20183;-82
2021/12/28 14:01:27;;;;;;;10.23;2.47;;;;;;;;;;4964128;28;20244;-78
2021/12/28 14:03:58;;;;;;;11.63;3.33;;;;;;;;;;4965089;28;20177;-81
2021/12/28 14:06:24;;;;;;;8.80;2.00;;;;;;;;;;4968196;29;20217;-79
2021/12/28 14:08:50;;;;;;;6.68;1.55;;;;;;;;;;4967567;29;20207;-80
2021/12/28 14:11:29;;;;;;;10.85;2.70;;;;;;;;;;4967656;28;20192;-78
2021/12/28 14:13:55;;;;;;;7.63;2.30;;;;;;;;;;4967923;28;20176;-78
2021/12/28 14:16:21;;;;;;;9.60;1.80;;;;;;;;;;4967503;28;20215;-80
2021/12/28 14:18:48;;;;;;;5.85;2.35;;;;;;;;;;4967899;28;20204;-81
2021/12/28 14:21:17;;;;;;;8.30;2.30;;;;;;;;;;4968433;29;20200;-78
2021/12/28 14:23:44;;;;;;;5.70;2.40;;;;;;;;;;4967438;28;20184;-82
2021/12/28 14:26:15;;;;;;;10.98;2.47;;;;;;;;;;4967259;28;20181;-77
2021/12/28 14:28:41;;;;;;;6.90;2.83;;;;;;;;;;4967693;28;20192;-77
2021/12/28 14:31:15;;;;;;;8.32;2.33;;;;;;;;;;4967508;29;20536;-78
2021/12/28 14:33:45;;;;;;;9.75;2.78;;;;;;;;;;4967726;29;20187;-79
2021/12/28 14:36:12;;;;;;;14.32;3.20;;;;;;;;;;4966581;29;20187;-77
2021/12/28 14:38:39;;;;;;;10.30;2.42;;;;;;;;;;4966976;28;20193;-79
2021/12/28 14:41:18;;;;;;;8.88;2.63;;;;;;;;;;4966983;28;20297;-79
2021/12/28 14:43:44;;;;;;;5.45;2.45;;;;;;;;;;4967308;28;20210;-78